createdAt,value
2017-04-29T00:01:02.914Z,22.13
2017-04-29T00:02:11.680Z,22.13
2017-04-29T00:03:20.782Z,22.17
2017-04-29T00:04:30.201Z,22.13
2017-04-29T00:05:39.294Z,22.1
2017-04-29T00:06:48.350Z,22.07
2017-04-29T00:07:57.411Z,22.08
2017-04-29T00:09:06.771Z,22.08
2017-04-29T00:10:15.842Z,22.07
2017-04-29T00:11:24.621Z,22.08
2017-04-29T00:12:33.706Z,22.14
2017-04-29T00:13:43.416Z,22.06
2017-04-29T00:14:52.513Z,22.08
2017-04-29T00:16:01.595Z,22.1
2017-04-29T00:17:10.683Z,22.13
2017-04-29T00:18:19.726Z,22.06
2017-04-29T00:19:29.089Z,21.99
2017-04-29T00:20:38.485Z,22.1
2017-04-29T00:21:47.581Z,22.08
2017-04-29T00:22:56.673Z,22.06
2017-04-29T00:24:05.724Z,22.07
2017-04-29T00:25:14.483Z,22
2017-04-29T00:26:23.532Z,21.98
2017-04-29T00:27:32.557Z,22
2017-04-29T00:28:42.214Z,22.02
2017-04-29T00:29:51.306Z,21.96
2017-04-29T00:31:00.411Z,21.99
2017-04-29T00:32:09.448Z,22
2017-04-29T00:33:18.515Z,21.96
2017-04-29T00:34:27.872Z,22
2017-04-29T00:35:37.558Z,22
2017-04-29T00:36:46.374Z,22
2017-04-29T00:37:55.469Z,21.99
2017-04-29T00:39:04.586Z,21.99
2017-04-29T00:40:13.977Z,21.93
2017-04-29T00:41:22.766Z,22.04
2017-04-29T00:42:31.819Z,21.96
2017-04-29T00:43:40.541Z,21.91
2017-04-29T00:44:49.610Z,21.93
2017-04-29T00:45:58.698Z,21.89
2017-04-29T00:47:07.476Z,21.95
2017-04-29T00:48:16.265Z,21.93
2017-04-29T00:49:25.669Z,21.96
2017-04-29T00:50:35.668Z,21.93
2017-04-29T00:51:45.078Z,21.95
2017-04-29T00:52:54.795Z,21.93
2017-04-29T00:54:04.213Z,21.88
2017-04-29T00:55:13.301Z,21.91
2017-04-29T00:56:22.044Z,21.95
2017-04-29T00:57:30.803Z,21.89
2017-04-29T00:58:40.822Z,21.89
2017-04-29T00:59:50.213Z,21.85
2017-04-29T01:00:59.575Z,21.93
2017-04-29T01:02:08.973Z,21.88
2017-04-29T01:03:18.686Z,21.85
2017-04-29T01:04:28.086Z,21.89
2017-04-29T01:05:37.193Z,21.88
2017-04-29T01:06:45.945Z,21.83
2017-04-29T01:07:55.316Z,21.88
2017-04-29T01:09:04.710Z,21.89
2017-04-29T01:10:13.803Z,21.92
2017-04-29T01:11:22.897Z,21.91
2017-04-29T01:12:31.973Z,21.93
2017-04-29T01:13:40.723Z,21.92
2017-04-29T01:14:49.784Z,21.91
2017-04-29T01:15:58.858Z,21.83
2017-04-29T01:17:07.946Z,21.85
2017-04-29T01:18:16.738Z,21.93
2017-04-29T01:19:25.787Z,21.91
2017-04-29T01:20:34.535Z,21.88
2017-04-29T01:21:43.322Z,21.93
2017-04-29T01:22:52.618Z,21.82
2017-04-29T01:24:01.709Z,21.82
2017-04-29T01:25:10.769Z,21.92
2017-04-29T01:26:19.488Z,21.85
2017-04-29T01:27:28.255Z,21.89
2017-04-29T01:28:37.250Z,21.8
2017-04-29T01:29:46.944Z,21.82
2017-04-29T01:30:55.733Z,21.83
2017-04-29T01:32:05.125Z,21.8
2017-04-29T01:33:14.223Z,21.79
2017-04-29T01:34:23.003Z,21.82
2017-04-29T01:35:32.696Z,21.79
2017-04-29T01:36:41.476Z,21.8
2017-04-29T01:37:51.170Z,21.73
2017-04-29T01:38:59.956Z,21.73
2017-04-29T01:40:08.734Z,21.83
2017-04-29T01:41:18.096Z,21.75
2017-04-29T01:42:27.161Z,21.72
2017-04-29T01:43:36.252Z,21.79
2017-04-29T01:44:45.658Z,21.7
2017-04-29T01:45:54.754Z,21.8
2017-04-29T01:47:04.397Z,21.77
2017-04-29T01:48:13.796Z,21.73
2017-04-29T01:49:22.852Z,21.77
2017-04-29T01:50:32.459Z,21.69
2017-04-29T01:51:41.250Z,21.7
2017-04-29T01:52:50.028Z,21.73
2017-04-29T01:53:59.720Z,21.76
2017-04-29T01:55:09.112Z,21.72
2017-04-29T01:56:18.198Z,21.75
2017-04-29T01:57:26.988Z,21.73
2017-04-29T01:58:36.685Z,21.72
2017-04-29T01:59:45.764Z,21.67
2017-04-29T02:00:54.515Z,21.69
2017-04-29T02:02:03.262Z,21.75
2017-04-29T02:03:12.322Z,21.66
2017-04-29T02:04:21.688Z,21.75
2017-04-29T02:05:30.786Z,21.75
2017-04-29T02:06:40.193Z,21.69
2017-04-29T02:07:49.253Z,21.69
2017-04-29T02:08:58.309Z,21.7
2017-04-29T02:10:07.683Z,21.75
2017-04-29T02:11:17.388Z,21.75
2017-04-29T02:12:26.473Z,21.75
2017-04-29T02:13:35.227Z,21.75
2017-04-29T02:14:44.934Z,21.73
2017-04-29T02:15:54.325Z,21.66
2017-04-29T02:17:03.723Z,21.7
2017-04-29T02:18:13.120Z,21.73
2017-04-29T02:19:22.192Z,21.73
2017-04-29T02:20:31.277Z,21.69
2017-04-29T02:21:40.061Z,21.69
2017-04-29T02:22:48.827Z,21.66
2017-04-29T02:23:58.457Z,21.58
2017-04-29T02:25:07.509Z,21.62
2017-04-29T02:26:16.284Z,21.69
2017-04-29T02:27:25.053Z,21.61
2017-04-29T02:28:34.983Z,21.62
2017-04-29T02:29:43.761Z,21.55
2017-04-29T02:30:52.539Z,21.6
2017-04-29T02:32:01.315Z,21.64
2017-04-29T02:33:11.298Z,21.58
2017-04-29T02:34:20.029Z,21.6
2017-04-29T02:35:29.336Z,21.61
2017-04-29T02:36:38.678Z,21.54
2017-04-29T02:37:47.747Z,21.61
2017-04-29T02:38:56.830Z,21.61
2017-04-29T02:40:05.587Z,21.62
2017-04-29T02:41:14.335Z,21.58
2017-04-29T02:42:23.716Z,21.62
2017-04-29T02:43:32.752Z,21.58
2017-04-29T02:44:42.055Z,21.58
2017-04-29T02:45:51.118Z,21.61
2017-04-29T02:47:00.202Z,21.64
2017-04-29T02:48:09.567Z,21.6
2017-04-29T02:49:18.941Z,21.6
2017-04-29T02:50:28.016Z,21.58
2017-04-29T02:51:37.052Z,21.58
2017-04-29T02:52:45.751Z,21.62
2017-04-29T02:53:54.807Z,21.62
2017-04-29T02:55:04.456Z,21.55
2017-04-29T02:56:13.816Z,21.55
2017-04-29T02:57:23.202Z,21.52
2017-04-29T02:58:32.788Z,21.58
2017-04-29T02:59:42.773Z,21.54
2017-04-29T03:00:51.847Z,21.54
2017-04-29T03:02:01.228Z,21.52
2017-04-29T03:03:10.299Z,21.54
2017-04-29T03:04:19.378Z,21.54
2017-04-29T03:05:28.417Z,21.5
2017-04-29T03:06:37.758Z,21.46
2017-04-29T03:07:46.830Z,21.5
2017-04-29T03:08:56.524Z,21.52
2017-04-29T03:10:05.555Z,21.46
2017-04-29T03:11:14.296Z,21.57
2017-04-29T03:12:23.068Z,21.46
2017-04-29T03:13:31.840Z,21.54
2017-04-29T03:14:40.913Z,21.54
2017-04-29T03:15:49.984Z,21.54
2017-04-29T03:16:59.068Z,21.46
2017-04-29T03:18:08.761Z,21.48
2017-04-29T03:19:17.532Z,21.54
2017-04-29T03:20:27.223Z,21.5
2017-04-29T03:21:35.995Z,21.51
2017-04-29T03:22:45.680Z,21.43
2017-04-29T03:23:55.368Z,21.48
2017-04-29T03:25:05.075Z,21.48
2017-04-29T03:26:14.160Z,21.48
2017-04-29T03:27:23.541Z,21.43
2017-04-29T03:28:32.267Z,21.48
2017-04-29T03:29:41.015Z,21.4
2017-04-29T03:30:49.775Z,21.43
2017-04-29T03:31:59.443Z,21.4
2017-04-29T03:33:08.180Z,21.46
2017-04-29T03:34:17.865Z,21.37
2017-04-29T03:35:26.935Z,21.4
2017-04-29T03:36:36.875Z,21.42
2017-04-29T03:37:45.611Z,21.4
2017-04-29T03:38:54.683Z,21.43
2017-04-29T03:40:04.367Z,21.4
2017-04-29T03:41:13.406Z,21.4
2017-04-29T03:42:22.443Z,21.4
2017-04-29T03:43:31.827Z,21.43
2017-04-29T03:44:41.504Z,21.4
2017-04-29T03:45:50.563Z,21.46
2017-04-29T03:46:59.937Z,21.39
2017-04-29T03:48:09.327Z,21.42
2017-04-29T03:49:18.392Z,21.39
2017-04-29T03:50:27.475Z,21.39
2017-04-29T03:51:36.192Z,21.42
2017-04-29T03:52:45.235Z,21.45
2017-04-29T03:53:54.617Z,21.39
2017-04-29T03:55:03.955Z,21.39
2017-04-29T03:56:13.308Z,21.39
2017-04-29T03:57:22.676Z,21.37
2017-04-29T03:58:31.450Z,21.36
2017-04-29T03:59:40.219Z,21.35
2017-04-29T04:00:49.596Z,21.37
2017-04-29T04:01:59.282Z,21.37
2017-04-29T04:03:08.658Z,21.43
2017-04-29T04:04:17.986Z,21.43
2017-04-29T04:05:27.633Z,21.36
2017-04-29T04:06:36.408Z,21.33
2017-04-29T04:07:45.743Z,21.25
2017-04-29T04:08:54.755Z,21.36
2017-04-29T04:10:04.414Z,21.37
2017-04-29T04:11:13.803Z,21.33
2017-04-29T04:12:22.870Z,21.42
2017-04-29T04:13:32.243Z,21.27
2017-04-29T04:14:41.318Z,21.37
2017-04-29T04:15:50.729Z,21.4
2017-04-29T04:16:59.762Z,21.35
2017-04-29T04:18:08.801Z,21.37
2017-04-29T04:19:17.871Z,21.33
2017-04-29T04:20:27.854Z,21.39
2017-04-29T04:21:37.230Z,21.32
2017-04-29T04:22:46.310Z,21.3
2017-04-29T04:23:55.691Z,21.4
2017-04-29T04:25:05.074Z,21.42
2017-04-29T04:26:14.158Z,21.37
2017-04-29T04:27:23.195Z,21.4
2017-04-29T04:28:32.250Z,21.36
2017-04-29T04:29:41.640Z,21.33
2017-04-29T04:30:51.323Z,21.33
2017-04-29T04:32:01.269Z,21.36
2017-04-29T04:33:09.973Z,21.39
2017-04-29T04:34:19.028Z,21.35
2017-04-29T04:35:27.793Z,21.37
2017-04-29T04:36:36.870Z,21.32
2017-04-29T04:37:45.940Z,21.32
2017-04-29T04:38:54.713Z,21.37
2017-04-29T04:40:03.796Z,21.39
2017-04-29T04:41:13.374Z,21.36
2017-04-29T04:42:22.142Z,21.36
2017-04-29T04:43:31.173Z,21.46
2017-04-29T04:44:40.527Z,21.35
2017-04-29T04:45:49.552Z,21.42
2017-04-29T04:46:58.287Z,21.39
2017-04-29T04:48:07.333Z,21.39
2017-04-29T04:49:16.721Z,21.42
2017-04-29T04:50:25.802Z,21.4
2017-04-29T04:51:35.129Z,21.42
2017-04-29T04:52:44.438Z,21.36
2017-04-29T04:53:53.484Z,21.43
2017-04-29T04:55:02.557Z,21.42
2017-04-29T04:56:11.623Z,21.43
2017-04-29T04:57:21.006Z,21.48
2017-04-29T04:58:30.690Z,21.51
2017-04-29T04:59:40.335Z,21.43
2017-04-29T05:00:49.700Z,21.43
2017-04-29T05:01:58.783Z,21.46
2017-04-29T05:03:07.549Z,21.51
2017-04-29T05:04:16.582Z,21.51
2017-04-29T05:05:25.933Z,21.5
2017-04-29T05:06:35.621Z,21.51
2017-04-29T05:07:44.700Z,21.5
2017-04-29T05:08:53.787Z,21.55
2017-04-29T05:10:03.421Z,21.55
2017-04-29T05:11:12.112Z,21.55
2017-04-29T05:12:21.121Z,21.54
2017-04-29T05:13:30.490Z,21.58
2017-04-29T05:14:40.167Z,21.6
2017-04-29T05:15:49.234Z,21.61
2017-04-29T05:16:58.000Z,21.57
2017-04-29T05:18:06.771Z,21.62
2017-04-29T05:19:15.809Z,21.6
2017-04-29T05:20:24.853Z,21.62
2017-04-29T05:21:33.620Z,21.62
2017-04-29T05:22:42.382Z,21.64
2017-04-29T05:23:51.720Z,21.61
2017-04-29T05:25:01.080Z,21.62
2017-04-29T05:26:10.159Z,21.72
2017-04-29T05:27:18.936Z,21.67
2017-04-29T05:28:27.973Z,21.61
2017-04-29T05:29:37.339Z,21.66
2017-04-29T05:30:46.758Z,21.64
2017-04-29T05:31:56.140Z,21.72
2017-04-29T05:33:04.871Z,21.7
2017-04-29T05:34:13.877Z,21.76
2017-04-29T05:35:22.922Z,21.69
2017-04-29T05:36:32.288Z,21.72
2017-04-29T05:37:41.661Z,21.76
2017-04-29T05:38:51.046Z,21.75
2017-04-29T05:40:00.419Z,21.76
2017-04-29T05:41:09.488Z,21.79
2017-04-29T05:42:18.255Z,21.73
2017-04-29T05:43:27.640Z,21.79
2017-04-29T05:44:36.715Z,21.88
2017-04-29T05:45:45.474Z,21.91
2017-04-29T05:46:54.553Z,21.89
2017-04-29T05:48:03.629Z,21.89
2017-04-29T05:49:12.695Z,21.88
2017-04-29T05:50:22.076Z,21.85
2017-04-29T05:51:30.801Z,21.93
2017-04-29T05:52:40.052Z,21.98
2017-04-29T05:53:49.170Z,21.96
2017-04-29T05:54:58.845Z,22
2017-04-29T05:56:07.872Z,21.96
2017-04-29T05:57:16.625Z,21.95
2017-04-29T05:58:26.316Z,21.98
2017-04-29T05:59:35.383Z,21.98
2017-04-29T06:00:44.730Z,21.96
2017-04-29T06:01:53.770Z,21.99
2017-04-29T06:03:02.839Z,22.07
2017-04-29T06:04:11.914Z,22.08
2017-04-29T06:05:21.263Z,22.13
2017-04-29T06:06:30.306Z,22.07
2017-04-29T06:07:39.347Z,22.13
2017-04-29T06:08:49.004Z,22.15
2017-04-29T06:09:58.653Z,22.17
2017-04-29T06:11:07.704Z,22.11
2017-04-29T06:12:16.778Z,22.18
2017-04-29T06:13:25.864Z,22.14
2017-04-29T06:14:35.252Z,22.1
2017-04-29T06:15:44.944Z,22.17
2017-04-29T06:16:53.716Z,22.2
2017-04-29T06:18:02.485Z,22.15
2017-04-29T06:19:11.252Z,22.17
2017-04-29T06:20:19.982Z,22.2
2017-04-29T06:21:28.722Z,22.28
2017-04-29T06:22:37.798Z,22.3
2017-04-29T06:23:46.840Z,22.33
2017-04-29T06:24:56.233Z,22.39
2017-04-29T06:26:05.613Z,22.43
2017-04-29T06:27:14.690Z,22.38
2017-04-29T06:28:23.465Z,22.32
2017-04-29T06:29:32.846Z,22.41
2017-04-29T06:30:41.886Z,22.32
2017-04-29T06:31:50.887Z,22.41
2017-04-29T06:32:59.928Z,22.39
2017-04-29T06:34:09.608Z,22.45
2017-04-29T06:35:18.689Z,22.5
2017-04-29T06:36:27.452Z,22.5
2017-04-29T06:37:36.835Z,22.57
2017-04-29T06:38:45.881Z,22.53
2017-04-29T06:39:54.896Z,22.51
2017-04-29T06:41:03.670Z,22.6
2017-04-29T06:42:12.434Z,22.68
2017-04-29T06:43:21.817Z,22.65
2017-04-29T06:44:31.194Z,22.7
2017-04-29T06:45:40.263Z,22.69
2017-04-29T06:46:49.644Z,22.72
2017-04-29T06:47:59.017Z,22.69
2017-04-29T06:49:08.696Z,22.69
2017-04-29T06:50:17.778Z,22.72
2017-04-29T06:51:26.551Z,22.66
2017-04-29T06:52:35.373Z,22.66
2017-04-29T06:53:44.747Z,22.68
2017-04-29T06:54:54.128Z,22.7
2017-04-29T06:56:03.500Z,22.78
2017-04-29T06:57:12.878Z,22.78
2017-04-29T06:58:21.946Z,22.84
2017-04-29T06:59:30.677Z,22.76
2017-04-29T07:00:40.637Z,22.78
2017-04-29T07:01:49.377Z,22.81
2017-04-29T07:02:58.446Z,22.88
2017-04-29T07:04:07.826Z,22.93
2017-04-29T07:05:16.897Z,22.87
2017-04-29T07:06:25.667Z,22.93
2017-04-29T07:07:34.741Z,22.87
2017-04-29T07:08:43.814Z,22.94
2017-04-29T07:09:53.184Z,22.85
2017-04-29T07:11:02.456Z,23
2017-04-29T07:12:11.232Z,22.94
2017-04-29T07:13:20.007Z,22.94
2017-04-29T07:14:29.087Z,22.98
2017-04-29T07:15:37.857Z,23.03
2017-04-29T07:16:46.926Z,22.99
2017-04-29T07:17:56.306Z,23.08
2017-04-29T07:19:05.069Z,23.06
2017-04-29T07:20:14.466Z,23.12
2017-04-29T07:21:23.232Z,23.1
2017-04-29T07:22:32.304Z,23.12
2017-04-29T07:23:41.071Z,23.13
2017-04-29T07:24:50.153Z,23.17
2017-04-29T07:25:59.847Z,23.21
2017-04-29T07:27:09.232Z,23.2
2017-04-29T07:28:18.007Z,23.18
2017-04-29T07:29:27.405Z,23.13
2017-04-29T07:30:36.477Z,23.18
2017-04-29T07:31:45.805Z,23.17
2017-04-29T07:32:54.844Z,23.13
2017-04-29T07:34:03.881Z,23.08
2017-04-29T07:35:12.626Z,23.12
2017-04-29T07:36:21.405Z,23
2017-04-29T07:37:30.172Z,23.03
2017-04-29T07:38:39.558Z,23
2017-04-29T07:39:49.256Z,23
2017-04-29T07:40:59.209Z,22.96
2017-04-29T07:42:07.948Z,22.88
2017-04-29T07:43:16.991Z,22.99
2017-04-29T07:44:25.734Z,22.99
2017-04-29T07:45:35.680Z,22.91
2017-04-29T07:46:44.709Z,22.94
2017-04-29T07:47:54.395Z,22.88
2017-04-29T07:49:03.777Z,23
2017-04-29T07:50:12.852Z,22.99
2017-04-29T07:51:21.917Z,22.99
2017-04-29T07:52:31.294Z,23.03
2017-04-29T07:53:40.348Z,23.1
2017-04-29T07:54:49.729Z,23.06
2017-04-29T07:55:59.114Z,23.09
2017-04-29T07:57:07.840Z,23.06
2017-04-29T07:58:17.205Z,23.08
2017-04-29T07:59:26.296Z,23.05
2017-04-29T08:00:35.665Z,23.1
2017-04-29T08:01:44.731Z,23.09
2017-04-29T08:02:53.817Z,23.09
2017-04-29T08:04:03.199Z,23.02
2017-04-29T08:05:11.931Z,23.08
2017-04-29T08:06:20.680Z,23
2017-04-29T08:07:29.445Z,22.99
2017-04-29T08:08:39.133Z,22.99
2017-04-29T08:09:47.904Z,23.02
2017-04-29T08:10:56.974Z,22.96
2017-04-29T08:12:06.048Z,22.93
2017-04-29T08:13:15.444Z,22.96
2017-04-29T08:14:24.522Z,22.87
2017-04-29T08:15:34.150Z,22.88
2017-04-29T08:16:43.160Z,22.87
2017-04-29T08:17:51.930Z,22.9
2017-04-29T08:19:01.312Z,22.9
2017-04-29T08:20:10.094Z,22.91
2017-04-29T08:21:18.831Z,22.9
2017-04-29T08:22:27.595Z,22.83
2017-04-29T08:23:36.683Z,22.88
2017-04-29T08:24:45.770Z,22.87
2017-04-29T08:25:54.552Z,22.87
2017-04-29T08:27:03.597Z,22.83
2017-04-29T08:28:12.604Z,22.94
2017-04-29T08:29:21.667Z,22.96
2017-04-29T08:30:30.443Z,22.99
2017-04-29T08:31:39.809Z,22.98
2017-04-29T08:32:48.894Z,22.99
2017-04-29T08:33:59.153Z,23.02
2017-04-29T08:35:08.156Z,23.02
2017-04-29T08:36:16.896Z,23.13
2017-04-29T08:37:26.244Z,23.17
2017-04-29T08:38:35.255Z,23.34
2017-04-29T08:39:44.038Z,23.39
2017-04-29T08:40:53.116Z,23.48
2017-04-29T08:42:01.879Z,23.5
2017-04-29T08:43:11.526Z,23.58
2017-04-29T08:44:20.879Z,23.55
2017-04-29T08:45:29.964Z,23.55
2017-04-29T08:46:38.923Z,23.54
2017-04-29T08:47:47.701Z,23.63
2017-04-29T08:48:57.041Z,23.56
2017-04-29T08:50:06.089Z,23.59
2017-04-29T08:51:14.861Z,23.58
2017-04-29T08:52:23.942Z,23.61
2017-04-29T08:53:33.017Z,23.56
2017-04-29T08:54:42.089Z,23.58
2017-04-29T08:55:51.168Z,23.59
2017-04-29T08:57:00.583Z,23.63
2017-04-29T08:58:09.960Z,23.48
2017-04-29T08:59:18.722Z,23.55
2017-04-29T09:00:27.803Z,23.55
2017-04-29T09:01:37.339Z,23.54
2017-04-29T09:02:46.116Z,23.5
2017-04-29T09:03:55.189Z,23.51
2017-04-29T09:05:04.276Z,23.46
2017-04-29T09:06:13.040Z,23.55
2017-04-29T09:07:22.117Z,23.47
2017-04-29T09:08:31.196Z,23.54
2017-04-29T09:09:40.575Z,23.56
2017-04-29T09:10:49.313Z,23.51
2017-04-29T09:11:58.018Z,23.44
2017-04-29T09:13:07.067Z,23.48
2017-04-29T09:14:16.753Z,23.59
2017-04-29T09:15:25.474Z,23.56
2017-04-29T09:16:34.185Z,23.71
2017-04-29T09:17:43.842Z,23.84
2017-04-29T09:18:52.923Z,23.86
2017-04-29T09:20:02.875Z,23.91
2017-04-29T09:21:12.430Z,23.98
2017-04-29T09:22:21.503Z,24.06
2017-04-29T09:23:30.586Z,24.08
2017-04-29T09:24:40.577Z,24.2
2017-04-29T09:25:50.016Z,24.26
2017-04-29T09:26:59.095Z,24.33
2017-04-29T09:28:08.134Z,24.43
2017-04-29T09:29:17.183Z,24.43
2017-04-29T09:30:26.257Z,24.53
2017-04-29T09:31:35.376Z,24.57
2017-04-29T09:32:44.484Z,24.53
2017-04-29T09:33:54.179Z,24.6
2017-04-29T09:35:03.881Z,24.61
2017-04-29T09:36:12.916Z,24.68
2017-04-29T09:37:22.304Z,24.74
2017-04-29T09:38:31.687Z,24.74
2017-04-29T09:39:40.465Z,24.69
2017-04-29T09:40:49.852Z,24.73
2017-04-29T09:41:58.610Z,24.65
2017-04-29T09:43:07.994Z,24.58
2017-04-29T09:44:17.070Z,24.61
2017-04-29T09:45:26.141Z,24.65
2017-04-29T09:46:34.901Z,24.53
2017-04-29T09:47:43.697Z,24.54
2017-04-29T09:48:52.765Z,24.4
2017-04-29T09:50:02.407Z,24.36
2017-04-29T09:51:11.110Z,24.51
2017-04-29T09:52:20.164Z,24.45
2017-04-29T09:53:29.220Z,24.43
2017-04-29T09:54:37.951Z,24.4
2017-04-29T09:55:46.723Z,24.42
2017-04-29T09:56:55.494Z,24.36
2017-04-29T09:58:04.571Z,24.36
2017-04-29T09:59:13.951Z,24.39
2017-04-29T10:00:23.344Z,24.36
2017-04-29T10:01:32.115Z,24.5
2017-04-29T10:02:40.897Z,24.48
2017-04-29T10:03:49.973Z,24.36
2017-04-29T10:04:59.348Z,24.4
2017-04-29T10:06:08.421Z,24.39
2017-04-29T10:07:17.188Z,24.45
2017-04-29T10:08:26.266Z,24.38
2017-04-29T10:09:35.395Z,24.38
2017-04-29T10:10:44.462Z,24.45
2017-04-29T10:11:53.538Z,24.51
2017-04-29T10:13:02.607Z,24.43
2017-04-29T10:14:11.688Z,24.45
2017-04-29T10:15:20.455Z,24.43
2017-04-29T10:16:30.033Z,24.36
2017-04-29T10:17:39.417Z,24.47
2017-04-29T10:18:48.757Z,24.51
2017-04-29T10:19:57.801Z,24.54
2017-04-29T10:21:06.839Z,24.65
2017-04-29T10:22:15.887Z,24.69
2017-04-29T10:23:25.237Z,24.69
2017-04-29T10:24:34.329Z,24.74
2017-04-29T10:25:43.414Z,24.7
2017-04-29T10:26:52.180Z,24.73
2017-04-29T10:28:01.264Z,24.8
2017-04-29T10:29:10.653Z,24.78
2017-04-29T10:30:19.425Z,24.73
2017-04-29T10:31:28.511Z,24.76
2017-04-29T10:32:37.376Z,24.78
2017-04-29T10:33:46.418Z,24.69
2017-04-29T10:34:55.502Z,24.57
2017-04-29T10:36:04.282Z,24.6
2017-04-29T10:37:13.373Z,24.55
2017-04-29T10:38:22.449Z,24.66
2017-04-29T10:39:31.802Z,24.73
2017-04-29T10:40:40.840Z,24.77
2017-04-29T10:41:49.883Z,24.74
2017-04-29T10:42:58.637Z,24.78
2017-04-29T10:44:07.710Z,24.86
2017-04-29T10:45:17.097Z,24.99
2017-04-29T10:46:25.873Z,25.13
2017-04-29T10:47:35.497Z,25.13
2017-04-29T10:48:44.871Z,25.21
2017-04-29T10:49:54.244Z,25.26
2017-04-29T10:51:03.536Z,25.33
2017-04-29T10:52:13.238Z,25.25
2017-04-29T10:53:22.321Z,25.26
2017-04-29T10:54:32.013Z,25.29
2017-04-29T10:55:41.395Z,25.29
2017-04-29T10:56:50.139Z,25.31
2017-04-29T10:57:58.875Z,25.29
2017-04-29T10:59:08.571Z,25.31
2017-04-29T11:00:17.650Z,25.36
2017-04-29T11:01:27.331Z,25.38
2017-04-29T11:02:36.110Z,25.4
2017-04-29T11:03:45.497Z,25.33
2017-04-29T11:04:54.918Z,25.32
2017-04-29T11:06:04.007Z,25.33
2017-04-29T11:07:12.788Z,25.26
2017-04-29T11:08:21.866Z,25.28
2017-04-29T11:09:31.550Z,25.22
2017-04-29T11:10:40.901Z,25.23
2017-04-29T11:11:49.679Z,25.17
2017-04-29T11:12:58.800Z,25.18
2017-04-29T11:14:08.489Z,25.13
2017-04-29T11:15:17.260Z,25.16
2017-04-29T11:16:26.335Z,25.16
2017-04-29T11:17:35.097Z,25.22
2017-04-29T11:18:44.484Z,25.04
2017-04-29T11:19:53.864Z,25.04
2017-04-29T11:21:02.943Z,25.06
2017-04-29T11:22:12.024Z,25.04
2017-04-29T11:23:21.720Z,25.06
2017-04-29T11:24:30.808Z,25.03
2017-04-29T11:25:39.846Z,25.03
2017-04-29T11:26:48.886Z,24.93
2017-04-29T11:27:58.265Z,24.88
2017-04-29T11:29:07.342Z,24.92
2017-04-29T11:30:16.390Z,24.88
2017-04-29T11:31:25.391Z,24.96
2017-04-29T11:32:34.138Z,24.92
2017-04-29T11:33:43.222Z,24.91
2017-04-29T11:34:52.347Z,24.96
2017-04-29T11:36:01.722Z,24.91
2017-04-29T11:37:11.074Z,24.91
2017-04-29T11:38:20.136Z,24.93
2017-04-29T11:39:29.811Z,24.93
2017-04-29T11:40:38.554Z,24.89
2017-04-29T11:41:47.285Z,24.84
2017-04-29T11:42:56.333Z,24.85
2017-04-29T11:44:06.019Z,24.76
2017-04-29T11:45:15.086Z,24.76
2017-04-29T11:46:23.849Z,24.86
2017-04-29T11:47:32.618Z,24.78
2017-04-29T11:48:41.692Z,24.65
2017-04-29T11:49:51.389Z,24.68
2017-04-29T11:51:00.160Z,24.76
2017-04-29T11:52:09.196Z,24.73
2017-04-29T11:53:18.261Z,24.7
2017-04-29T11:54:27.648Z,24.7
2017-04-29T11:55:36.461Z,24.66
2017-04-29T11:56:45.528Z,24.7
2017-04-29T11:57:54.600Z,24.66
2017-04-29T11:59:03.673Z,24.68
2017-04-29T12:00:13.059Z,24.73
2017-04-29T12:01:22.395Z,24.63
2017-04-29T12:02:31.441Z,24.68
2017-04-29T12:03:41.083Z,24.73
2017-04-29T12:04:49.796Z,24.73
2017-04-29T12:05:59.156Z,24.68
2017-04-29T12:07:07.974Z,24.8
2017-04-29T12:08:17.049Z,24.85
2017-04-29T12:09:26.436Z,24.86
2017-04-29T12:10:36.136Z,24.91
2017-04-29T12:11:45.503Z,24.89
2017-04-29T12:12:54.229Z,25.01
2017-04-29T12:14:03.905Z,24.95
2017-04-29T12:15:12.668Z,24.95
2017-04-29T12:16:21.715Z,24.95
2017-04-29T12:17:30.792Z,24.92
2017-04-29T12:18:39.862Z,24.91
2017-04-29T12:19:49.814Z,24.95
2017-04-29T12:20:58.862Z,24.98
2017-04-29T12:22:08.247Z,24.99
2017-04-29T12:23:17.026Z,24.99
2017-04-29T12:24:26.709Z,25.04
2017-04-29T12:25:35.799Z,25.01
2017-04-29T12:26:45.181Z,25.06
2017-04-29T12:27:54.253Z,25.07
2017-04-29T12:29:03.630Z,25.07
2017-04-29T12:30:13.011Z,25.07
2017-04-29T12:31:22.089Z,25.03
2017-04-29T12:32:30.858Z,25.07
2017-04-29T12:33:40.235Z,25.04
2017-04-29T12:34:49.626Z,25.06
2017-04-29T12:35:58.413Z,25.03
2017-04-29T12:37:08.074Z,25.14
2017-04-29T12:38:17.122Z,25.1
2017-04-29T12:39:26.503Z,25.13
2017-04-29T12:40:35.572Z,25.14
2017-04-29T12:41:44.340Z,25.16
2017-04-29T12:42:53.719Z,25.17
2017-04-29T12:44:03.096Z,25.18
2017-04-29T12:45:12.409Z,25.31
2017-04-29T12:46:21.447Z,25.22
2017-04-29T12:47:30.186Z,25.25
2017-04-29T12:48:39.413Z,25.26
2017-04-29T12:49:48.497Z,25.29
2017-04-29T12:50:58.179Z,25.28
2017-04-29T12:52:06.960Z,25.33
2017-04-29T12:53:15.724Z,25.32
2017-04-29T12:54:25.106Z,25.28
2017-04-29T12:55:33.874Z,25.29
2017-04-29T12:56:42.625Z,25.38
2017-04-29T12:57:51.988Z,25.36
2017-04-29T12:59:01.077Z,25.38
2017-04-29T13:00:10.161Z,25.41
2017-04-29T13:01:19.240Z,25.41
2017-04-29T13:02:28.002Z,25.28
2017-04-29T13:03:36.772Z,25.31
2017-04-29T13:04:45.853Z,25.4
2017-04-29T13:05:55.228Z,25.41
2017-04-29T13:07:04.301Z,25.35
2017-04-29T13:08:13.070Z,25.41
2017-04-29T13:09:22.153Z,25.41
2017-04-29T13:10:31.219Z,25.43
2017-04-29T13:11:40.274Z,25.43
2017-04-29T13:12:49.349Z,25.5
2017-04-29T13:13:58.701Z,25.48
2017-04-29T13:15:07.453Z,25.36
2017-04-29T13:16:16.483Z,25.43
2017-04-29T13:17:25.484Z,25.48
2017-04-29T13:18:34.484Z,25.46
2017-04-29T13:19:44.140Z,25.54
2017-04-29T13:20:53.218Z,25.44
2017-04-29T13:22:02.257Z,25.41
2017-04-29T13:23:11.567Z,25.5
2017-04-29T13:24:20.616Z,25.48
2017-04-29T13:25:29.688Z,25.5
2017-04-29T13:26:38.409Z,25.54
2017-04-29T13:27:47.717Z,25.54
2017-04-29T13:28:57.676Z,25.44
2017-04-29T13:30:06.745Z,25.48
2017-04-29T13:31:15.476Z,25.47
2017-04-29T13:32:24.184Z,25.48
2017-04-29T13:33:33.200Z,25.47
2017-04-29T13:34:42.603Z,25.46
2017-04-29T13:35:51.370Z,25.47
2017-04-29T13:37:00.097Z,25.43
2017-04-29T13:38:08.834Z,25.43
2017-04-29T13:39:18.530Z,25.46
2017-04-29T13:40:27.302Z,25.47
2017-04-29T13:41:36.683Z,25.4
2017-04-29T13:42:46.064Z,25.41
2017-04-29T13:43:55.104Z,25.35
2017-04-29T13:45:04.457Z,25.36
2017-04-29T13:46:13.846Z,25.4
2017-04-29T13:47:22.609Z,25.35
2017-04-29T13:48:31.943Z,25.35
2017-04-29T13:49:41.299Z,25.31
2017-04-29T13:50:50.379Z,25.26
2017-04-29T13:51:59.205Z,25.26
2017-04-29T13:53:08.278Z,25.32
2017-04-29T13:54:18.266Z,25.22
2017-04-29T13:55:27.339Z,25.32
2017-04-29T13:56:36.108Z,25.21
2017-04-29T13:57:44.884Z,25.23
2017-04-29T13:58:53.962Z,25.23
2017-04-29T14:00:03.045Z,25.18
2017-04-29T14:01:12.414Z,25.18
2017-04-29T14:02:21.173Z,25.14
2017-04-29T14:03:30.549Z,25.14
2017-04-29T14:04:40.593Z,25.04
2017-04-29T14:05:49.619Z,25.06
2017-04-29T14:06:58.367Z,25.06
2017-04-29T14:08:08.062Z,25.04
2017-04-29T14:09:17.451Z,25.01
2017-04-29T14:10:27.106Z,24.99
2017-04-29T14:11:36.448Z,24.98
2017-04-29T14:12:45.168Z,25.01
2017-04-29T14:13:54.209Z,24.99
2017-04-29T14:15:03.264Z,24.98
2017-04-29T14:16:12.304Z,24.99
2017-04-29T14:17:21.072Z,24.99
2017-04-29T14:18:30.110Z,24.93
2017-04-29T14:19:39.193Z,24.93
2017-04-29T14:20:48.837Z,24.85
2017-04-29T14:21:57.588Z,24.95
2017-04-29T14:23:06.667Z,24.98
2017-04-29T14:24:16.001Z,24.91
2017-04-29T14:25:24.753Z,24.95
2017-04-29T14:26:33.821Z,24.86
2017-04-29T14:27:42.597Z,24.92
2017-04-29T14:28:51.673Z,24.95
2017-04-29T14:30:00.748Z,24.88
2017-04-29T14:31:09.519Z,24.81
2017-04-29T14:32:18.243Z,24.8
2017-04-29T14:33:27.564Z,24.77
2017-04-29T14:34:36.302Z,24.77
2017-04-29T14:35:45.348Z,24.78
2017-04-29T14:36:54.058Z,24.78
2017-04-29T14:38:02.807Z,24.8
2017-04-29T14:39:11.881Z,24.73
2017-04-29T14:40:20.953Z,24.73
2017-04-29T14:41:30.030Z,24.68
2017-04-29T14:42:38.811Z,24.69
2017-04-29T14:43:48.165Z,24.76
2017-04-29T14:44:57.211Z,24.7
2017-04-29T14:46:06.905Z,24.76
2017-04-29T14:47:15.627Z,24.8
2017-04-29T14:48:24.378Z,24.61
2017-04-29T14:49:33.748Z,24.73
2017-04-29T14:50:42.947Z,24.63
2017-04-29T14:51:51.985Z,24.69
2017-04-29T14:53:01.343Z,24.63
2017-04-29T14:54:10.694Z,24.66
2017-04-29T14:55:19.465Z,24.6